sensor_id;sensor_type;location;lat;lon;timestamp;temperature;humidity
70151;DHT22;57517;43.562;19.540;2023-03-01T00:01:23;153.70;2252.80
70151;DHT22;57517;43.562;19.540;2023-03-01T00:03:49;153.60;2252.80
70151;DHT22;57517;43.562;19.540;2023-03-01T00:06:16;153.70;2252.80
70151;DHT22;57517;43.562;19.540;2023-03-01T00:08:42;153.70;2252.80
70151;DHT22;57517;43.562;19.540;2023-03-01T00:11:16;153.80;2252.80
70151;DHT22;57517;43.562;19.540;2023-03-01T00:13:49;153.80;2252.80
70151;DHT22;57517;43.562;19.540;2023-03-01T00:16:33;153.70;2252.80
70151;DHT22;57517;43.562;19.540;2023-03-01T00:18:59;153.60;2252.80
70151;DHT22;57517;43.562;19.540;2023-03-01T00:21:25;153.60;2252.80
70151;DHT22;57517;43.562;19.540;2023-03-01T00:23:52;153.70;2252.80
70151;DHT22;57517;43.562;19.540;2023-03-01T00:26:19;153.80;2252.80
70151;DHT22;57517;43.562;19.540;2023-03-01T00:28:45;153.80;2252.80
70151;DHT22;57517;43.562;19.540;2023-03-01T00:31:18;153.80;2252.80
70151;DHT22;57517;43.562;19.540;2023-03-01T00:33:44;153.90;2252.80
70151;DHT22;57517;43.562;19.540;2023-03-01T00:36:11;153.90;2252.80
70151;DHT22;57517;43.562;19.540;2023-03-01T00:38:39;153.90;2252.80
70151;DHT22;57517;43.562;19.540;2023-03-01T00:41:07;153.90;2252.80
70151;DHT22;57517;43.562;19.540;2023-03-01T00:43:33;153.80;2252.80
70151;DHT22;57517;43.562;19.540;2023-03-01T00:46:08;153.90;2252.80
70151;DHT22;57517;43.562;19.540;2023-03-01T00:48:35;153.70;2252.80
70151;DHT22;57517;43.562;19.540;2023-03-01T00:51:21;153.60;2252.80
70151;DHT22;57517;43.562;19.540;2023-03-01T00:53:50;153.70;2252.80
70151;DHT22;57517;43.562;19.540;2023-03-01T00:56:16;153.70;2252.80
70151;DHT22;57517;43.562;19.540;2023-03-01T00:58:43;153.70;2252.80
70151;DHT22;57517;43.562;19.540;2023-03-01T01:01:16;153.80;2252.80
70151;DHT22;57517;43.562;19.540;2023-03-01T01:03:47;153.90;2252.80
70151;DHT22;57517;43.562;19.540;2023-03-01T01:06:27;153.80;2252.80
70151;DHT22;57517;43.562;19.540;2023-03-01T01:08:54;153.80;2252.80
70151;DHT22;57517;43.562;19.540;2023-03-01T01:11:22;153.90;2252.80
70151;DHT22;57517;43.562;19.540;2023-03-01T01:13:48;154.00;2252.80
70151;DHT22;57517;43.562;19.540;2023-03-01T01:16:15;154.00;2252.80
70151;DHT22;57517;43.562;19.540;2023-03-01T01:18:41;154.00;2252.80
70151;DHT22;57517;43.562;19.540;2023-03-01T01:21:10;154.10;2252.80
70151;DHT22;57517;43.562;19.540;2023-03-01T01:23:37;154.10;2252.80
70151;DHT22;57517;43.562;19.540;2023-03-01T01:26:24;154.00;2252.80
70151;DHT22;57517;43.562;19.540;2023-03-01T01:28:50;154.00;2252.80
70151;DHT22;57517;43.562;19.540;2023-03-01T01:31:16;154.00;2252.80
70151;DHT22;57517;43.562;19.540;2023-03-01T01:33:42;154.00;2252.80
70151;DHT22;57517;43.562;19.540;2023-03-01T01:36:08;154.00;2252.80
70151;DHT22;57517;43.562;19.540;2023-03-01T01:38:35;154.00;2252.80
70151;DHT22;57517;43.562;19.540;2023-03-01T01:41:01;154.00;2252.80
70151;DHT22;57517;43.562;19.540;2023-03-01T01:43:33;154.00;2252.80
70151;DHT22;57517;43.562;19.540;2023-03-01T01:46:02;154.00;2252.80
70151;DHT22;57517;43.562;19.540;2023-03-01T01:49:20;154.00;2252.80
70151;DHT22;57517;43.562;19.540;2023-03-01T01:51:24;153.90;2252.80
70151;DHT22;57517;43.562;19.540;2023-03-01T01:53:55;153.90;2252.80
70151;DHT22;57517;43.562;19.540;2023-03-01T01:56:23;154.00;2252.80
70151;DHT22;57517;43.562;19.540;2023-03-01T01:58:50;154.00;2252.80
70151;DHT22;57517;43.562;19.540;2023-03-01T02:01:16;153.80;2252.80
70151;DHT22;57517;43.562;19.540;2023-03-01T02:03:43;153.70;2252.80
70151;DHT22;57517;43.562;19.540;2023-03-01T02:08:37;153.70;2252.80
70151;DHT22;57517;43.562;19.540;2023-03-01T02:11:04;153.70;2252.80
70151;DHT22;57517;43.562;19.540;2023-03-01T02:13:31;153.70;2252.80
70151;DHT22;57517;43.562;19.540;2023-03-01T02:15:58;153.70;2252.80
70151;DHT22;57517;43.562;19.540;2023-03-01T02:18:24;153.70;2252.80
70151;DHT22;57517;43.562;19.540;2023-03-01T02:23:48;153.60;2252.80
70151;DHT22;57517;43.562;19.540;2023-03-01T02:28:50;153.70;2252.80
70151;DHT22;57517;43.562;19.540;2023-03-01T02:31:19;153.70;2252.80
70151;DHT22;57517;43.562;19.540;2023-03-01T02:34:05;153.70;2252.80
70151;DHT22;57517;43.562;19.540;2023-03-01T02:36:38;153.80;2252.80
70151;DHT22;57517;43.562;19.540;2023-03-01T02:39:07;153.70;2252.80
70151;DHT22;57517;43.562;19.540;2023-03-01T02:41:42;153.70;2252.80
70151;DHT22;57517;43.562;19.540;2023-03-01T02:44:08;153.80;2252.80
70151;DHT22;57517;43.562;19.540;2023-03-01T02:46:41;153.90;2252.80
70151;DHT22;57517;43.562;19.540;2023-03-01T02:49:28;153.80;2252.80
70151;DHT22;57517;43.562;19.540;2023-03-01T02:55:09;153.60;2252.80
70151;DHT22;57517;43.562;19.540;2023-03-01T02:57:39;153.60;2252.80
70151;DHT22;57517;43.562;19.540;2023-03-01T03:00:12;128.90;2252.80
70151;DHT22;57517;43.562;19.540;2023-03-01T03:02:45;128.90;2252.80
70151;DHT22;57517;43.562;19.540;2023-03-01T03:05:15;153.60;2252.80
70151;DHT22;57517;43.562;19.540;2023-03-01T03:07:43;153.70;2252.80
70151;DHT22;57517;43.562;19.540;2023-03-01T03:10:15;153.70;2252.80
70151;DHT22;57517;43.562;19.540;2023-03-01T03:12:42;153.60;2252.80
70151;DHT22;57517;43.562;19.540;2023-03-01T03:15:09;153.70;2252.80
70151;DHT22;57517;43.562;19.540;2023-03-01T03:17:39;153.70;2252.80
70151;DHT22;57517;43.562;19.540;2023-03-01T03:20:06;153.80;2252.80
70151;DHT22;57517;43.562;19.540;2023-03-01T03:22:37;153.80;2252.80
70151;DHT22;57517;43.562;19.540;2023-03-01T03:25:03;153.80;2252.80
70151;DHT22;57517;43.562;19.540;2023-03-01T03:27:28;153.80;2252.80
70151;DHT22;57517;43.562;19.540;2023-03-01T03:29:54;153.70;2252.80
70151;DHT22;57517;43.562;19.540;2023-03-01T03:32:20;153.70;2252.80
70151;DHT22;57517;43.562;19.540;2023-03-01T03:34:46;153.70;2252.80
70151;DHT22;57517;43.562;19.540;2023-03-01T03:37:11;153.80;2252.80
70151;DHT22;57517;43.562;19.540;2023-03-01T03:39:57;153.70;2252.80
70151;DHT22;57517;43.562;19.540;2023-03-01T03:42:24;153.80;2252.80
70151;DHT22;57517;43.562;19.540;2023-03-01T03:44:49;153.80;2252.80
70151;DHT22;57517;43.562;19.540;2023-03-01T03:47:15;153.80;2252.80
70151;DHT22;57517;43.562;19.540;2023-03-01T03:49:41;153.90;2252.80
70151;DHT22;57517;43.562;19.540;2023-03-01T03:52:06;153.90;2252.80
70151;DHT22;57517;43.562;19.540;2023-03-01T03:54:40;153.90;2252.80
70151;DHT22;57517;43.562;19.540;2023-03-01T03:57:06;153.70;2252.80
70151;DHT22;57517;43.562;19.540;2023-03-01T03:59:31;153.70;2252.80
70151;DHT22;57517;43.562;19.540;2023-03-01T04:01:57;153.80;2252.80
70151;DHT22;57517;43.562;19.540;2023-03-01T04:04:23;153.80;2252.80
70151;DHT22;57517;43.562;19.540;2023-03-01T04:06:49;153.80;2252.80
70151;DHT22;57517;43.562;19.540;2023-03-01T04:09:14;153.80;2252.80
70151;DHT22;57517;43.562;19.540;2023-03-01T04:11:40;153.90;2252.80
70151;DHT22;57517;43.562;19.540;2023-03-01T04:14:06;153.90;2252.80
70151;DHT22;57517;43.562;19.540;2023-03-01T04:16:31;153.80;2252.80
70151;DHT22;57517;43.562;19.540;2023-03-01T04:18:57;153.80;2252.80
70151;DHT22;57517;43.562;19.540;2023-03-01T04:21:25;153.60;2252.80
70151;DHT22;57517;43.562;19.540;2023-03-01T04:23:51;128.90;2252.80
70151;DHT22;57517;43.562;19.540;2023-03-01T04:26:18;128.60;2252.80
70151;DHT22;57517;43.562;19.540;2023-03-01T04:28:45;128.80;2252.80
70151;DHT22;57517;43.562;19.540;2023-03-01T04:31:15;128.90;2252.80
70151;DHT22;57517;43.562;19.540;2023-03-01T04:33:45;153.60;2252.80
70151;DHT22;57517;43.562;19.540;2023-03-01T04:36:13;153.70;2252.80
70151;DHT22;57517;43.562;19.540;2023-03-01T04:38:40;153.80;2252.80
70151;DHT22;57517;43.562;19.540;2023-03-01T04:41:07;153.70;2252.80
70151;DHT22;57517;43.562;19.540;2023-03-01T04:43:33;153.80;2252.80
70151;DHT22;57517;43.562;19.540;2023-03-01T04:46:11;153.80;2252.80
70151;DHT22;57517;43.562;19.540;2023-03-01T04:48:39;153.80;2252.80
70151;DHT22;57517;43.562;19.540;2023-03-01T04:51:05;153.70;2252.80
70151;DHT22;57517;43.562;19.540;2023-03-01T04:53:32;153.80;2252.80
70151;DHT22;57517;43.562;19.540;2023-03-01T04:55:58;153.80;2252.80
70151;DHT22;57517;43.562;19.540;2023-03-01T04:58:25;153.90;2252.80
70151;DHT22;57517;43.562;19.540;2023-03-01T05:00:52;153.90;2252.80
70151;DHT22;57517;43.562;19.540;2023-03-01T05:03:19;153.80;2252.80
70151;DHT22;57517;43.562;19.540;2023-03-01T05:05:47;153.90;2252.80
70151;DHT22;57517;43.562;19.540;2023-03-01T05:08:13;153.80;2252.80
70151;DHT22;57517;43.562;19.540;2023-03-01T05:10:48;153.80;2252.80
70151;DHT22;57517;43.562;19.540;2023-03-01T05:13:14;153.80;2252.80
70151;DHT22;57517;43.562;19.540;2023-03-01T05:15:53;153.80;2252.80
70151;DHT22;57517;43.562;19.540;2023-03-01T05:18:19;153.80;2252.80
70151;DHT22;57517;43.562;19.540;2023-03-01T05:20:45;153.90;2252.80
70151;DHT22;57517;43.562;19.540;2023-03-01T05:23:11;153.90;2252.80
70151;DHT22;57517;43.562;19.540;2023-03-01T05:25:37;128.90;2252.80
70151;DHT22;57517;43.562;19.540;2023-03-01T05:28:07;153.60;2252.80
70151;DHT22;57517;43.562;19.540;2023-03-01T05:30:35;153.60;2252.80
70151;DHT22;57517;43.562;19.540;2023-03-01T05:33:01;153.60;2252.80
70151;DHT22;57517;43.562;19.540;2023-03-01T05:35:27;153.60;2252.80
70151;DHT22;57517;43.562;19.540;2023-03-01T05:37:55;153.70;2252.80
70151;DHT22;57517;43.562;19.540;2023-03-01T05:40:22;153.70;2252.80
70151;DHT22;57517;43.562;19.540;2023-03-01T05:42:52;153.70;2252.80
70151;DHT22;57517;43.562;19.540;2023-03-01T05:45:20;153.70;2252.80
70151;DHT22;57517;43.562;19.540;2023-03-01T05:47:48;153.80;2252.80
70151;DHT22;57517;43.562;19.540;2023-03-01T05:50:25;153.80;2252.80
70151;DHT22;57517;43.562;19.540;2023-03-01T05:52:57;153.80;2252.80
70151;DHT22;57517;43.562;19.540;2023-03-01T05:55:23;153.60;2252.80
70151;DHT22;57517;43.562;19.540;2023-03-01T05:57:49;153.70;2252.80
70151;DHT22;57517;43.562;19.540;2023-03-01T06:00:17;153.70;2252.80
70151;DHT22;57517;43.562;19.540;2023-03-01T06:02:43;153.90;2252.80
70151;DHT22;57517;43.562;19.540;2023-03-01T06:05:10;153.80;2252.80
70151;DHT22;57517;43.562;19.540;2023-03-01T06:07:36;153.80;2252.80
70151;DHT22;57517;43.562;19.540;2023-03-01T06:10:03;153.60;2252.80
70151;DHT22;57517;43.562;19.540;2023-03-01T06:12:34;153.60;2252.80
70151;DHT22;57517;43.562;19.540;2023-03-01T06:15:00;153.60;2252.80
70151;DHT22;57517;43.562;19.540;2023-03-01T06:17:30;153.70;2252.80
70151;DHT22;57517;43.562;19.540;2023-03-01T06:19:56;153.70;2252.80
70151;DHT22;57517;43.562;19.540;2023-03-01T06:22:22;153.90;2252.80
70151;DHT22;57517;43.562;19.540;2023-03-01T06:24:47;154.00;2252.80
70151;DHT22;57517;43.562;19.540;2023-03-01T06:27:13;154.10;2252.80
70151;DHT22;57517;43.562;19.540;2023-03-01T06:29:39;154.20;2252.80
70151;DHT22;57517;43.562;19.540;2023-03-01T06:32:05;154.20;2252.80
70151;DHT22;57517;43.562;19.540;2023-03-01T06:34:31;154.30;2252.80
70151;DHT22;57517;43.562;19.540;2023-03-01T06:36:57;154.30;2252.80
70151;DHT22;57517;43.562;19.540;2023-03-01T06:39:23;154.30;2252.80
70151;DHT22;57517;43.562;19.540;2023-03-01T06:41:48;154.30;2252.80
70151;DHT22;57517;43.562;19.540;2023-03-01T06:44:14;154.30;2252.80
70151;DHT22;57517;43.562;19.540;2023-03-01T06:46:40;154.40;2252.80
70151;DHT22;57517;43.562;19.540;2023-03-01T06:49:06;154.50;2252.80
70151;DHT22;57517;43.562;19.540;2023-03-01T06:51:36;179.20;2252.80
70151;DHT22;57517;43.562;19.540;2023-03-01T06:54:05;179.20;2252.80
70151;DHT22;57517;43.562;19.540;2023-03-01T06:56:32;154.50;2252.80
70151;DHT22;57517;43.562;19.540;2023-03-01T06:58:57;154.40;2252.80
70151;DHT22;57517;43.562;19.540;2023-03-01T07:01:23;154.40;2252.80
70151;DHT22;57517;43.562;19.540;2023-03-01T07:03:49;154.30;2252.80
70151;DHT22;57517;43.562;19.540;2023-03-01T07:06:15;154.40;2252.80
70151;DHT22;57517;43.562;19.540;2023-03-01T07:08:40;179.20;2252.80
70151;DHT22;57517;43.562;19.540;2023-03-01T07:11:06;179.20;2252.80
70151;DHT22;57517;43.562;19.540;2023-03-01T07:13:32;179.20;2252.80
70151;DHT22;57517;43.562;19.540;2023-03-01T07:15:58;179.30;2252.80
70151;DHT22;57517;43.562;19.540;2023-03-01T07:18:24;179.30;2252.80
70151;DHT22;57517;43.562;19.540;2023-03-01T07:20:49;179.40;2252.80
70151;DHT22;57517;43.562;19.540;2023-03-01T07:23:15;179.40;2252.80
70151;DHT22;57517;43.562;19.540;2023-03-01T07:25:41;179.50;2252.80
70151;DHT22;57517;43.562;19.540;2023-03-01T07:28:07;179.40;2252.80
70151;DHT22;57517;43.562;19.540;2023-03-01T07:30:33;179.50;2252.80
70151;DHT22;57517;43.562;19.540;2023-03-01T07:32:59;179.50;2252.80
70151;DHT22;57517;43.562;19.540;2023-03-01T07:35:26;179.50;2252.80
70151;DHT22;57517;43.562;19.540;2023-03-01T07:37:52;179.60;2252.80
70151;DHT22;57517;43.562;19.540;2023-03-01T07:40:19;179.60;2252.80
70151;DHT22;57517;43.562;19.540;2023-03-01T07:42:45;179.60;2252.80
70151;DHT22;57517;43.562;19.540;2023-03-01T07:45:11;179.60;2252.80
70151;DHT22;57517;43.562;19.540;2023-03-01T07:47:38;179.50;2252.80
70151;DHT22;57517;43.562;19.540;2023-03-01T07:50:05;179.50;2252.80
70151;DHT22;57517;43.562;19.540;2023-03-01T07:52:31;179.50;2252.80
70151;DHT22;57517;43.562;19.540;2023-03-01T07:54:57;179.50;2252.80
70151;DHT22;57517;43.562;19.540;2023-03-01T07:57:23;179.50;2252.80
70151;DHT22;57517;43.562;19.540;2023-03-01T07:59:49;179.60;2252.80
70151;DHT22;57517;43.562;19.540;2023-03-01T08:02:14;179.70;2252.80
70151;DHT22;57517;43.562;19.540;2023-03-01T08:04:41;179.60;2252.80
70151;DHT22;57517;43.562;19.540;2023-03-01T08:07:07;179.70;2252.80
70151;DHT22;57517;43.562;19.540;2023-03-01T08:09:36;179.80;2252.80
70151;DHT22;57517;43.562;19.540;2023-03-01T08:12:03;179.70;2252.80
70151;DHT22;57517;43.562;19.540;2023-03-01T08:14:30;179.60;2252.80
70151;DHT22;57517;43.562;19.540;2023-03-01T08:16:56;179.70;2252.80
70151;DHT22;57517;43.562;19.540;2023-03-01T08:19:22;179.80;2252.80
70151;DHT22;57517;43.562;19.540;2023-03-01T08:21:47;179.80;2252.80
70151;DHT22;57517;43.562;19.540;2023-03-01T08:24:13;179.80;2252.80
70151;DHT22;57517;43.562;19.540;2023-03-01T08:26:39;179.80;2252.80
70151;DHT22;57517;43.562;19.540;2023-03-01T08:29:05;179.90;2252.80
70151;DHT22;57517;43.562;19.540;2023-03-01T08:31:36;179.80;2252.80
70151;DHT22;57517;43.562;19.540;2023-03-01T08:34:05;179.70;2252.80
70151;DHT22;57517;43.562;19.540;2023-03-01T08:36:34;179.80;2252.80
70151;DHT22;57517;43.562;19.540;2023-03-01T08:39:00;179.90;2252.80
70151;DHT22;57517;43.562;19.540;2023-03-01T08:41:26;179.80;2252.80
70151;DHT22;57517;43.562;19.540;2023-03-01T08:43:53;179.90;2252.80
70151;DHT22;57517;43.562;19.540;2023-03-01T08:46:31;179.80;2252.80
70151;DHT22;57517;43.562;19.540;2023-03-01T08:48:57;179.80;2252.80
70151;DHT22;57517;43.562;19.540;2023-03-01T08:51:24;179.90;2252.80
70151;DHT22;57517;43.562;19.540;2023-03-01T08:53:50;180.10;2252.80
70151;DHT22;57517;43.562;19.540;2023-03-01T08:56:17;180.10;2252.80
70151;DHT22;57517;43.562;19.540;2023-03-01T08:58:48;204.80;2252.80
70151;DHT22;57517;43.562;19.540;2023-03-01T09:01:18;205.10;2252.80
70151;DHT22;57517;43.562;19.540;2023-03-01T09:03:45;205.10;2252.80
70151;DHT22;57517;43.562;19.540;2023-03-01T09:06:12;205.50;2252.80
70151;DHT22;57517;43.562;19.540;2023-03-01T09:08:39;230.40;2227.20
70151;DHT22;57517;43.562;19.540;2023-03-01T09:11:07;205.70;2150.40
70151;DHT22;57517;43.562;19.540;2023-03-01T09:13:33;230.40;2099.20
70151;DHT22;57517;43.562;19.540;2023-03-01T09:16:02;230.50;2099.20
70151;DHT22;57517;43.562;19.540;2023-03-01T09:18:28;230.60;2073.60
70151;DHT22;57517;43.562;19.540;2023-03-01T09:21:11;230.70;2099.20
70151;DHT22;57517;43.562;19.540;2023-03-01T09:23:39;230.70;2048.00
70151;DHT22;57517;43.562;19.540;2023-03-01T09:26:07;230.80;2022.40
70151;DHT22;57517;43.562;19.540;2023-03-01T09:28:37;230.60;2022.40
70151;DHT22;57517;43.562;19.540;2023-03-01T09:31:03;205.70;2150.40
70151;DHT22;57517;43.562;19.540;2023-03-01T09:33:31;205.70;2099.20
70151;DHT22;57517;43.562;19.540;2023-03-01T09:35:59;205.50;2150.40
70151;DHT22;57517;43.562;19.540;2023-03-01T09:38:25;205.60;2201.60
70151;DHT22;57517;43.562;19.540;2023-03-01T09:40:51;230.40;2150.40
70151;DHT22;57517;43.562;19.540;2023-03-01T09:46:10;205.60;2176.00
70151;DHT22;57517;43.562;19.540;2023-03-01T09:48:48;205.70;2124.80
70151;DHT22;57517;43.562;19.540;2023-03-01T09:51:19;205.70;2150.40
70151;DHT22;57517;43.562;19.540;2023-03-01T09:53:47;230.40;2124.80
70151;DHT22;57517;43.562;19.540;2023-03-01T09:56:20;230.70;2048.00
70151;DHT22;57517;43.562;19.540;2023-03-01T09:59:04;230.90;2022.40
70151;DHT22;57517;43.562;19.540;2023-03-01T10:01:43;231.00;2022.40
70151;DHT22;57517;43.562;19.540;2023-03-01T10:04:46;231.00;1996.80
70151;DHT22;57517;43.562;19.540;2023-03-01T10:09:58;230.80;1996.80
70151;DHT22;57517;43.562;19.540;2023-03-01T10:12:33;230.90;1996.80
70151;DHT22;57517;43.562;19.540;2023-03-01T10:17:33;256.00;1894.40
70151;DHT22;57517;43.562;19.540;2023-03-01T10:21:03;256.60;1843.20
70151;DHT22;57517;43.562;19.540;2023-03-01T10:23:09;281.70;1766.40
70151;DHT22;57517;43.562;19.540;2023-03-01T10:28:16;256.40;1894.40
70151;DHT22;57517;43.562;19.540;2023-03-01T10:30:42;256.70;1868.80
70151;DHT22;57517;43.562;19.540;2023-03-01T10:33:31;281.70;1792.00
70151;DHT22;57517;43.562;19.540;2023-03-01T10:35:58;256.90;1766.40
70151;DHT22;57517;43.562;19.540;2023-03-01T10:38:24;256.80;1766.40
70151;DHT22;57517;43.562;19.540;2023-03-01T10:41:09;256.80;1740.80
70151;DHT22;57517;43.562;19.540;2023-03-01T10:46:30;282.20;1740.80
70151;DHT22;57517;43.562;19.540;2023-03-01T10:51:43;307.40;1715.20
70151;DHT22;57517;43.562;19.540;2023-03-01T10:54:22;307.30;1638.40
70151;DHT22;57517;43.562;19.540;2023-03-01T10:56:57;282.40;1664.00
70151;DHT22;57517;43.562;19.540;2023-03-01T10:59:30;281.80;1689.60
70151;DHT22;57517;43.562;19.540;2023-03-01T11:02:20;281.60;1740.80
70151;DHT22;57517;43.562;19.540;2023-03-01T11:05:02;256.70;1766.40
70151;DHT22;57517;43.562;19.540;2023-03-01T11:07:56;256.60;1817.60
70151;DHT22;57517;43.562;19.540;2023-03-01T11:10:42;256.50;1868.80
70151;DHT22;57517;43.562;19.540;2023-03-01T11:13:15;256.00;1945.60
70151;DHT22;57517;43.562;19.540;2023-03-01T11:15:42;256.30;1894.40
70151;DHT22;57517;43.562;19.540;2023-03-01T11:18:22;256.30;1894.40
70151;DHT22;57517;43.562;19.540;2023-03-01T11:20:51;256.20;1894.40
70151;DHT22;57517;43.562;19.540;2023-03-01T11:23:18;256.50;1920.00
70151;DHT22;57517;43.562;19.540;2023-03-01T11:25:54;256.20;1894.40
70151;DHT22;57517;43.562;19.540;2023-03-01T11:28:21;256.60;1843.20
70151;DHT22;57517;43.562;19.540;2023-03-01T11:38:34;281.60;1894.40
70151;DHT22;57517;43.562;19.540;2023-03-01T11:41:07;256.90;1792.00
70151;DHT22;57517;43.562;19.540;2023-03-01T11:57:53;231.30;1996.80
70151;DHT22;57517;43.562;19.540;2023-03-01T12:11:35;230.50;2252.80
70151;DHT22;57517;43.562;19.540;2023-03-01T12:20:05;230.60;2252.80
70151;DHT22;57517;43.562;19.540;2023-03-01T12:22:57;230.70;2252.80
70151;DHT22;57517;43.562;19.540;2023-03-01T12:28:48;230.70;2252.80
70151;DHT22;57517;43.562;19.540;2023-03-01T12:34:21;230.70;2252.80
70151;DHT22;57517;43.562;19.540;2023-03-01T12:55:08;230.40;2252.80
70151;DHT22;57517;43.562;19.540;2023-03-01T12:58:00;205.70;2252.80
70151;DHT22;57517;43.562;19.540;2023-03-01T13:01:33;230.40;2252.80
70151;DHT22;57517;43.562;19.540;2023-03-01T13:11:32;205.70;2252.80
70151;DHT22;57517;43.562;19.540;2023-03-01T13:16:46;205.70;2252.80
70151;DHT22;57517;43.562;19.540;2023-03-01T13:19:25;205.70;2252.80
70151;DHT22;57517;43.562;19.540;2023-03-01T13:21:53;205.70;2252.80
70151;DHT22;57517;43.562;19.540;2023-03-01T13:24:40;205.70;2252.80
70151;DHT22;57517;43.562;19.540;2023-03-01T13:29:48;205.70;2252.80
70151;DHT22;57517;43.562;19.540;2023-03-01T13:32:24;205.70;2252.80
70151;DHT22;57517;43.562;19.540;2023-03-01T13:34:55;230.40;2252.80
70151;DHT22;57517;43.562;19.540;2023-03-01T13:37:23;205.70;2252.80
70151;DHT22;57517;43.562;19.540;2023-03-01T13:39:51;205.60;2252.80
70151;DHT22;57517;43.562;19.540;2023-03-01T13:42:38;205.70;2252.80
70151;DHT22;57517;43.562;19.540;2023-03-01T13:45:36;205.70;2252.80
70151;DHT22;57517;43.562;19.540;2023-03-01T13:50:43;205.70;2252.80
70151;DHT22;57517;43.562;19.540;2023-03-01T13:53:16;205.70;2252.80
70151;DHT22;57517;43.562;19.540;2023-03-01T13:55:45;205.70;2252.80
70151;DHT22;57517;43.562;19.540;2023-03-01T13:58:31;205.70;2252.80
70151;DHT22;57517;43.562;19.540;2023-03-01T14:01:00;230.40;2252.80
70151;DHT22;57517;43.562;19.540;2023-03-01T14:03:26;205.50;2252.80
70151;DHT22;57517;43.562;19.540;2023-03-01T14:06:13;205.50;2252.80
70151;DHT22;57517;43.562;19.540;2023-03-01T14:08:41;230.40;2252.80
70151;DHT22;57517;43.562;19.540;2023-03-01T14:21:29;230.60;2252.80
70151;DHT22;57517;43.562;19.540;2023-03-01T14:23:57;230.70;2252.80
70151;DHT22;57517;43.562;19.540;2023-03-01T14:26:23;230.40;2252.80
70151;DHT22;57517;43.562;19.540;2023-03-01T14:28:50;230.40;2252.80
70151;DHT22;57517;43.562;19.540;2023-03-01T14:31:32;230.50;2252.80
70151;DHT22;57517;43.562;19.540;2023-03-01T14:33:59;230.50;2252.80
70151;DHT22;57517;43.562;19.540;2023-03-01T14:36:31;230.70;2252.80
70151;DHT22;57517;43.562;19.540;2023-03-01T14:38:57;230.80;2252.80
70151;DHT22;57517;43.562;19.540;2023-03-01T14:41:34;230.80;2252.80
70151;DHT22;57517;43.562;19.540;2023-03-01T14:44:05;230.70;2252.80
70151;DHT22;57517;43.562;19.540;2023-03-01T14:46:35;230.70;2252.80
70151;DHT22;57517;43.562;19.540;2023-03-01T14:49:05;230.80;2252.80
70151;DHT22;57517;43.562;19.540;2023-03-01T14:51:39;230.80;2252.80
70151;DHT22;57517;43.562;19.540;2023-03-01T14:54:25;230.50;2252.80
70151;DHT22;57517;43.562;19.540;2023-03-01T14:56:52;230.40;2252.80
70151;DHT22;57517;43.562;19.540;2023-03-01T14:59:22;230.40;2252.80
70151;DHT22;57517;43.562;19.540;2023-03-01T15:01:50;230.50;2252.80
70151;DHT22;57517;43.562;19.540;2023-03-01T15:04:17;230.60;2252.80
70151;DHT22;57517;43.562;19.540;2023-03-01T15:06:44;230.40;2252.80
70151;DHT22;57517;43.562;19.540;2023-03-01T15:09:14;230.50;2252.80
70151;DHT22;57517;43.562;19.540;2023-03-01T15:11:44;230.40;2252.80
70151;DHT22;57517;43.562;19.540;2023-03-01T15:14:38;230.50;2252.80
70151;DHT22;57517;43.562;19.540;2023-03-01T15:17:14;230.50;2252.80
70151;DHT22;57517;43.562;19.540;2023-03-01T15:19:42;205.70;2252.80
70151;DHT22;57517;43.562;19.540;2023-03-01T15:22:15;205.70;2252.80
70151;DHT22;57517;43.562;19.540;2023-03-01T15:24:41;205.60;2252.80
70151;DHT22;57517;43.562;19.540;2023-03-01T15:27:16;205.70;2252.80
70151;DHT22;57517;43.562;19.540;2023-03-01T15:29:58;205.50;2252.80
70151;DHT22;57517;43.562;19.540;2023-03-01T15:34:59;205.60;2252.80
70151;DHT22;57517;43.562;19.540;2023-03-01T15:37:39;205.50;2252.80
70151;DHT22;57517;43.562;19.540;2023-03-01T15:40:27;205.50;2252.80
70151;DHT22;57517;43.562;19.540;2023-03-01T15:43:04;205.50;2252.80
70151;DHT22;57517;43.562;19.540;2023-03-01T15:45:32;205.50;2252.80
70151;DHT22;57517;43.562;19.540;2023-03-01T15:48:13;205.50;2252.80
70151;DHT22;57517;43.562;19.540;2023-03-01T15:50:40;205.50;2252.80
70151;DHT22;57517;43.562;19.540;2023-03-01T15:53:12;205.40;2252.80
70151;DHT22;57517;43.562;19.540;2023-03-01T15:55:39;205.20;2252.80
70151;DHT22;57517;43.562;19.540;2023-03-01T15:58:20;205.40;2252.80
70151;DHT22;57517;43.562;19.540;2023-03-01T16:00:47;205.40;2252.80
70151;DHT22;57517;43.562;19.540;2023-03-01T16:03:16;205.10;2252.80
70151;DHT22;57517;43.562;19.540;2023-03-01T16:05:47;204.90;2252.80
70151;DHT22;57517;43.562;19.540;2023-03-01T16:08:14;180.10;2252.80
70151;DHT22;57517;43.562;19.540;2023-03-01T16:10:41;204.80;2252.80
70151;DHT22;57517;43.562;19.540;2023-03-01T16:13:12;204.80;2252.80
70151;DHT22;57517;43.562;19.540;2023-03-01T16:15:38;204.90;2252.80
70151;DHT22;57517;43.562;19.540;2023-03-01T16:18:05;205.00;2252.80
70151;DHT22;57517;43.562;19.540;2023-03-01T16:20:32;205.00;2252.80
70151;DHT22;57517;43.562;19.540;2023-03-01T16:23:02;205.10;2252.80
70151;DHT22;57517;43.562;19.540;2023-03-01T16:25:29;205.10;2252.80
70151;DHT22;57517;43.562;19.540;2023-03-01T16:27:55;205.20;2252.80
70151;DHT22;57517;43.562;19.540;2023-03-01T16:30:23;205.30;2252.80
70151;DHT22;57517;43.562;19.540;2023-03-01T16:32:49;205.40;2252.80
70151;DHT22;57517;43.562;19.540;2023-03-01T16:35:18;205.30;2252.80
70151;DHT22;57517;43.562;19.540;2023-03-01T16:37:44;205.20;2252.80
70151;DHT22;57517;43.562;19.540;2023-03-01T16:40:27;205.20;2252.80
70151;DHT22;57517;43.562;19.540;2023-03-01T16:42:55;205.20;2252.80
70151;DHT22;57517;43.562;19.540;2023-03-01T16:45:25;205.30;2252.80
70151;DHT22;57517;43.562;19.540;2023-03-01T16:47:52;205.30;2252.80
70151;DHT22;57517;43.562;19.540;2023-03-01T16:50:18;205.30;2252.80
70151;DHT22;57517;43.562;19.540;2023-03-01T16:52:43;205.30;2252.80